Terminal Aerodrome Forecast
Issued by NWS

Home | Current Version | Previous Version | Text Only | Print | Product List | Glossary On
Versions: 1 2 3 4 5 6 7 8 9 10 11 12 13 14 15 16
086
FTUS43 KGRR 231139
TAFMKG
TAF
KMKG 231139Z 2312/2412 23010G18KT P6SM OVC040
     FM231900 23010KT P6SM SCT050
     FM232300 22005KT P6SM SKC
     FM240900 20012KT P6SM BKN250=

USA.gov is the U.S. government's official web portal to all federal, state and local government web resources and services.